Terminal Aerodrome Forecast
Issued by NWS Medford, OR

Home | Current Version | Previous Version | Text Only | Print | Product List | Glossary On
Versions: 1 2 3 4 5 6 7 8 9 10 11 12 13 14
000
FTUS46 KMFR 030100 AAA
TAFMFR
TAF AMD
KMFR 030146Z 0302/0324 36012KT P6SM SKC
     FM030400 VRB03KT P6SM SKC
     FM032100 32010KT P6SM SKC=

USA.gov is the U.S. government's official web portal to all federal, state and local government web resources and services.